sensor_id;sensor_type;location;lat;lon;timestamp;P1;durP1;ratioP1;P2;durP2;ratioP2
7080;SDS011;3582;51.506;11.948;2023-09-07T00:01:20;11.50;;;10.07;;
7080;SDS011;3582;51.506;11.948;2023-09-07T00:03:46;13.63;;;10.83;;
7080;SDS011;3582;51.506;11.948;2023-09-07T00:06:12;11.40;;;10.50;;
7080;SDS011;3582;51.506;11.948;2023-09-07T00:08:38;14.57;;;10.80;;
7080;SDS011;3582;51.506;11.948;2023-09-07T00:11:08;13.33;;;11.37;;
7080;SDS011;3582;51.506;11.948;2023-09-07T00:13:37;10.80;;;9.90;;
7080;SDS011;3582;51.506;11.948;2023-09-07T00:16:03;12.13;;;11.13;;
7080;SDS011;3582;51.506;11.948;2023-09-07T00:18:30;11.40;;;10.50;;
7080;SDS011;3582;51.506;11.948;2023-09-07T00:20:56;12.97;;;11.77;;
7080;SDS011;3582;51.506;11.948;2023-09-07T00:23:22;12.90;;;10.87;;
7080;SDS011;3582;51.506;11.948;2023-09-07T00:25:48;11.90;;;10.67;;
7080;SDS011;3582;51.506;11.948;2023-09-07T00:28:14;12.83;;;11.63;;
7080;SDS011;3582;51.506;11.948;2023-09-07T00:30:40;11.23;;;10.33;;
7080;SDS011;3582;51.506;11.948;2023-09-07T00:33:07;12.13;;;10.83;;
7080;SDS011;3582;51.506;11.948;2023-09-07T00:35:33;10.73;;;9.67;;
7080;SDS011;3582;51.506;11.948;2023-09-07T00:37:59;13.20;;;11.90;;
7080;SDS011;3582;51.506;11.948;2023-09-07T00:40:25;11.63;;;10.53;;
7080;SDS011;3582;51.506;11.948;2023-09-07T00:42:51;12.80;;;11.40;;
7080;SDS011;3582;51.506;11.948;2023-09-07T00:45:17;11.43;;;10.30;;
7080;SDS011;3582;51.506;11.948;2023-09-07T00:47:43;11.53;;;10.67;;
7080;SDS011;3582;51.506;11.948;2023-09-07T00:50:10;11.90;;;10.93;;
7080;SDS011;3582;51.506;11.948;2023-09-07T00:52:40;13.70;;;11.23;;
7080;SDS011;3582;51.506;11.948;2023-09-07T00:55:07;12.33;;;10.97;;
7080;SDS011;3582;51.506;11.948;2023-09-07T00:57:33;10.07;;;9.27;;
7080;SDS011;3582;51.506;11.948;2023-09-07T00:59:59;11.37;;;10.07;;
7080;SDS011;3582;51.506;11.948;2023-09-07T01:02:25;11.27;;;10.17;;
7080;SDS011;3582;51.506;11.948;2023-09-07T01:04:51;11.40;;;10.50;;
7080;SDS011;3582;51.506;11.948;2023-09-07T01:07:21;13.00;;;11.90;;
7080;SDS011;3582;51.506;11.948;2023-09-07T01:09:51;15.63;;;11.37;;
7080;SDS011;3582;51.506;11.948;2023-09-07T01:12:18;13.10;;;11.90;;
7080;SDS011;3582;51.506;11.948;2023-09-07T01:14:44;11.00;;;10.00;;
7080;SDS011;3582;51.506;11.948;2023-09-07T01:17:10;13.80;;;12.50;;
7080;SDS011;3582;51.506;11.948;2023-09-07T01:19:38;12.20;;;10.90;;
7080;SDS011;3582;51.506;11.948;2023-09-07T01:22:04;13.90;;;11.77;;
7080;SDS011;3582;51.506;11.948;2023-09-07T01:24:31;12.20;;;9.63;;
7080;SDS011;3582;51.506;11.948;2023-09-07T01:26:58;12.20;;;10.80;;
7080;SDS011;3582;51.506;11.948;2023-09-07T01:29:24;12.00;;;10.90;;
7080;SDS011;3582;51.506;11.948;2023-09-07T01:31:54;12.07;;;11.00;;
7080;SDS011;3582;51.506;11.948;2023-09-07T01:34:20;13.57;;;11.83;;
7080;SDS011;3582;51.506;11.948;2023-09-07T01:36:46;11.73;;;10.63;;
7080;SDS011;3582;51.506;11.948;2023-09-07T01:39:11;12.10;;;10.87;;
7080;SDS011;3582;51.506;11.948;2023-09-07T01:41:37;13.57;;;10.80;;
7080;SDS011;3582;51.506;11.948;2023-09-07T01:44:04;12.40;;;11.30;;
7080;SDS011;3582;51.506;11.948;2023-09-07T01:46:30;12.80;;;11.60;;
7080;SDS011;3582;51.506;11.948;2023-09-07T01:48:56;14.23;;;12.73;;
7080;SDS011;3582;51.506;11.948;2023-09-07T01:51:21;11.43;;;10.53;;
7080;SDS011;3582;51.506;11.948;2023-09-07T01:53:48;11.80;;;10.33;;
7080;SDS011;3582;51.506;11.948;2023-09-07T01:56:15;11.20;;;10.10;;
7080;SDS011;3582;51.506;11.948;2023-09-07T01:58:41;11.70;;;10.67;;
7080;SDS011;3582;51.506;11.948;2023-09-07T02:01:09;11.60;;;10.40;;
7080;SDS011;3582;51.506;11.948;2023-09-07T02:03:45;11.93;;;9.97;;
7080;SDS011;3582;51.506;11.948;2023-09-07T02:06:11;13.27;;;12.17;;
7080;SDS011;3582;51.506;11.948;2023-09-07T02:08:37;11.07;;;10.07;;
7080;SDS011;3582;51.506;11.948;2023-09-07T02:11:05;14.13;;;12.67;;
7080;SDS011;3582;51.506;11.948;2023-09-07T02:13:31;14.47;;;12.20;;
7080;SDS011;3582;51.506;11.948;2023-09-07T02:15:56;13.20;;;11.90;;
7080;SDS011;3582;51.506;11.948;2023-09-07T02:18:22;12.23;;;11.20;;
7080;SDS011;3582;51.506;11.948;2023-09-07T02:20:48;13.73;;;12.33;;
7080;SDS011;3582;51.506;11.948;2023-09-07T02:23:14;13.73;;;11.87;;
7080;SDS011;3582;51.506;11.948;2023-09-07T02:25:40;12.47;;;11.33;;
7080;SDS011;3582;51.506;11.948;2023-09-07T02:28:07;12.50;;;11.47;;
7080;SDS011;3582;51.506;11.948;2023-09-07T02:30:33;13.47;;;12.23;;
7080;SDS011;3582;51.506;11.948;2023-09-07T02:32:59;12.30;;;11.03;;
7080;SDS011;3582;51.506;11.948;2023-09-07T02:35:25;13.90;;;12.57;;
7080;SDS011;3582;51.506;11.948;2023-09-07T02:37:51;14.30;;;12.70;;
7080;SDS011;3582;51.506;11.948;2023-09-07T02:40:16;11.07;;;10.07;;
7080;SDS011;3582;51.506;11.948;2023-09-07T02:42:42;12.87;;;11.70;;
7080;SDS011;3582;51.506;11.948;2023-09-07T02:45:11;14.20;;;12.20;;
7080;SDS011;3582;51.506;11.948;2023-09-07T02:47:38;13.90;;;12.70;;
7080;SDS011;3582;51.506;11.948;2023-09-07T02:50:05;14.90;;;13.60;;
7080;SDS011;3582;51.506;11.948;2023-09-07T02:52:31;12.50;;;11.33;;
7080;SDS011;3582;51.506;11.948;2023-09-07T02:54:56;15.40;;;13.03;;
7080;SDS011;3582;51.506;11.948;2023-09-07T02:57:22;12.97;;;11.67;;
7080;SDS011;3582;51.506;11.948;2023-09-07T03:09:03;15.23;;;12.37;;
7080;SDS011;3582;51.506;11.948;2023-09-07T03:11:33;14.83;;;13.23;;
7080;SDS011;3582;51.506;11.948;2023-09-07T03:13:59;13.97;;;12.50;;
7080;SDS011;3582;51.506;11.948;2023-09-07T03:16:25;13.40;;;12.30;;
7080;SDS011;3582;51.506;11.948;2023-09-07T03:18:52;14.27;;;12.80;;
7080;SDS011;3582;51.506;11.948;2023-09-07T03:21:17;15.47;;;14.03;;
7080;SDS011;3582;51.506;11.948;2023-09-07T03:23:44;13.97;;;12.63;;
7080;SDS011;3582;51.506;11.948;2023-09-07T03:26:10;13.87;;;12.57;;
7080;SDS011;3582;51.506;11.948;2023-09-07T03:28:35;15.60;;;13.37;;
7080;SDS011;3582;51.506;11.948;2023-09-07T03:31:02;13.80;;;12.40;;
7080;SDS011;3582;51.506;11.948;2023-09-07T03:33:27;17.30;;;13.30;;
7080;SDS011;3582;51.506;11.948;2023-09-07T03:35:54;15.70;;;12.47;;
7080;SDS011;3582;51.506;11.948;2023-09-07T03:38:23;19.37;;;12.13;;
7080;SDS011;3582;51.506;11.948;2023-09-07T03:40:49;13.30;;;12.20;;
7080;SDS011;3582;51.506;11.948;2023-09-07T03:43:15;15.03;;;12.90;;
7080;SDS011;3582;51.506;11.948;2023-09-07T03:45:41;17.33;;;13.10;;
7080;SDS011;3582;51.506;11.948;2023-09-07T03:48:07;13.90;;;12.57;;
7080;SDS011;3582;51.506;11.948;2023-09-07T03:50:34;17.60;;;12.67;;
7080;SDS011;3582;51.506;11.948;2023-09-07T03:53:00;16.83;;;14.77;;
7080;SDS011;3582;51.506;11.948;2023-09-07T03:55:26;15.60;;;14.00;;
7080;SDS011;3582;51.506;11.948;2023-09-07T03:57:52;15.63;;;14.20;;
7080;SDS011;3582;51.506;11.948;2023-09-07T04:00:18;14.13;;;12.90;;
7080;SDS011;3582;51.506;11.948;2023-09-07T04:02:44;14.10;;;12.60;;
7080;SDS011;3582;51.506;11.948;2023-09-07T04:05:10;19.00;;;17.20;;
7080;SDS011;3582;51.506;11.948;2023-09-07T04:07:37;15.07;;;13.53;;
7080;SDS011;3582;51.506;11.948;2023-09-07T04:10:03;15.77;;;14.07;;
7080;SDS011;3582;51.506;11.948;2023-09-07T04:12:29;16.63;;;14.07;;
7080;SDS011;3582;51.506;11.948;2023-09-07T04:14:56;14.47;;;13.20;;
7080;SDS011;3582;51.506;11.948;2023-09-07T04:17:22;17.03;;;13.90;;
7080;SDS011;3582;51.506;11.948;2023-09-07T04:19:48;18.90;;;14.73;;
7080;SDS011;3582;51.506;11.948;2023-09-07T04:22:14;15.23;;;13.70;;
7080;SDS011;3582;51.506;11.948;2023-09-07T04:24:40;17.03;;;15.40;;
7080;SDS011;3582;51.506;11.948;2023-09-07T04:27:06;18.87;;;17.07;;
7080;SDS011;3582;51.506;11.948;2023-09-07T04:29:32;16.17;;;14.60;;
7080;SDS011;3582;51.506;11.948;2023-09-07T04:31:57;16.47;;;14.97;;
7080;SDS011;3582;51.506;11.948;2023-09-07T04:34:24;22.33;;;16.20;;
7080;SDS011;3582;51.506;11.948;2023-09-07T04:36:50;17.60;;;15.90;;
7080;SDS011;3582;51.506;11.948;2023-09-07T04:39:16;19.27;;;17.47;;
7080;SDS011;3582;51.506;11.948;2023-09-07T04:41:42;17.60;;;15.70;;
7080;SDS011;3582;51.506;11.948;2023-09-07T04:44:08;21.70;;;17.87;;
7080;SDS011;3582;51.506;11.948;2023-09-07T04:46:34;18.00;;;16.20;;
7080;SDS011;3582;51.506;11.948;2023-09-07T04:48:59;18.80;;;16.80;;
7080;SDS011;3582;51.506;11.948;2023-09-07T04:51:25;16.70;;;15.17;;
7080;SDS011;3582;51.506;11.948;2023-09-07T04:53:51;25.03;;;16.77;;
7080;SDS011;3582;51.506;11.948;2023-09-07T04:56:17;23.50;;;16.50;;
7080;SDS011;3582;51.506;11.948;2023-09-07T04:58:44;18.33;;;16.70;;
7080;SDS011;3582;51.506;11.948;2023-09-07T05:01:10;18.93;;;16.33;;
7080;SDS011;3582;51.506;11.948;2023-09-07T05:03:36;23.90;;;17.60;;
7080;SDS011;3582;51.506;11.948;2023-09-07T05:06:03;21.53;;;19.47;;
7080;SDS011;3582;51.506;11.948;2023-09-07T05:08:29;17.93;;;16.13;;
7080;SDS011;3582;51.506;11.948;2023-09-07T05:10:55;17.90;;;16.10;;
7080;SDS011;3582;51.506;11.948;2023-09-07T05:13:22;18.70;;;17.00;;
7080;SDS011;3582;51.506;11.948;2023-09-07T05:15:52;21.83;;;18.40;;
7080;SDS011;3582;51.506;11.948;2023-09-07T05:18:19;18.90;;;16.93;;
7080;SDS011;3582;51.506;11.948;2023-09-07T05:20:45;19.23;;;17.23;;
7080;SDS011;3582;51.506;11.948;2023-09-07T05:23:12;19.60;;;17.80;;
7080;SDS011;3582;51.506;11.948;2023-09-07T05:25:44;19.47;;;17.70;;
7080;SDS011;3582;51.506;11.948;2023-09-07T05:28:10;18.50;;;16.43;;
7080;SDS011;3582;51.506;11.948;2023-09-07T05:30:36;17.20;;;15.57;;
7080;SDS011;3582;51.506;11.948;2023-09-07T05:33:02;18.70;;;16.93;;
7080;SDS011;3582;51.506;11.948;2023-09-07T05:35:28;16.80;;;15.20;;
7080;SDS011;3582;51.506;11.948;2023-09-07T05:37:57;17.20;;;14.97;;
7080;SDS011;3582;51.506;11.948;2023-09-07T05:40:23;18.73;;;16.80;;
7080;SDS011;3582;51.506;11.948;2023-09-07T05:42:49;16.90;;;15.30;;
7080;SDS011;3582;51.506;11.948;2023-09-07T05:45:15;16.87;;;15.37;;
7080;SDS011;3582;51.506;11.948;2023-09-07T05:47:41;19.00;;;15.40;;
7080;SDS011;3582;51.506;11.948;2023-09-07T05:50:07;18.20;;;16.40;;
7080;SDS011;3582;51.506;11.948;2023-09-07T05:52:33;16.40;;;14.73;;
7080;SDS011;3582;51.506;11.948;2023-09-07T05:54:59;17.33;;;14.80;;
7080;SDS011;3582;51.506;11.948;2023-09-07T05:57:25;17.73;;;16.03;;
7080;SDS011;3582;51.506;11.948;2023-09-07T05:59:51;18.67;;;16.53;;
7080;SDS011;3582;51.506;11.948;2023-09-07T06:02:17;19.40;;;17.50;;
7080;SDS011;3582;51.506;11.948;2023-09-07T06:04:43;18.73;;;16.90;;
7080;SDS011;3582;51.506;11.948;2023-09-07T06:07:09;18.30;;;16.60;;
7080;SDS011;3582;51.506;11.948;2023-09-07T06:09:35;18.73;;;16.87;;
7080;SDS011;3582;51.506;11.948;2023-09-07T06:12:02;18.23;;;15.47;;
7080;SDS011;3582;51.506;11.948;2023-09-07T06:14:28;18.30;;;16.30;;
7080;SDS011;3582;51.506;11.948;2023-09-07T06:16:54;18.30;;;16.80;;
7080;SDS011;3582;51.506;11.948;2023-09-07T06:19:20;19.50;;;16.70;;
7080;SDS011;3582;51.506;11.948;2023-09-07T06:21:46;18.30;;;16.70;;
7080;SDS011;3582;51.506;11.948;2023-09-07T06:24:12;20.23;;;17.50;;
7080;SDS011;3582;51.506;11.948;2023-09-07T06:26:38;20.57;;;18.57;;
7080;SDS011;3582;51.506;11.948;2023-09-07T06:29:03;20.30;;;17.27;;
7080;SDS011;3582;51.506;11.948;2023-09-07T06:31:29;19.20;;;17.10;;
7080;SDS011;3582;51.506;11.948;2023-09-07T06:33:55;20.20;;;18.20;;
7080;SDS011;3582;51.506;11.948;2023-09-07T06:36:21;20.27;;;18.47;;
7080;SDS011;3582;51.506;11.948;2023-09-07T06:38:47;18.73;;;16.80;;
7080;SDS011;3582;51.506;11.948;2023-09-07T06:41:13;20.00;;;17.70;;
7080;SDS011;3582;51.506;11.948;2023-09-07T06:43:40;19.50;;;17.47;;
7080;SDS011;3582;51.506;11.948;2023-09-07T06:46:06;19.17;;;17.40;;
7080;SDS011;3582;51.506;11.948;2023-09-07T06:48:33;18.67;;;16.60;;
7080;SDS011;3582;51.506;11.948;2023-09-07T06:51:05;20.87;;;17.90;;
7080;SDS011;3582;51.506;11.948;2023-09-07T06:53:32;19.93;;;18.20;;
7080;SDS011;3582;51.506;11.948;2023-09-07T06:55:58;19.53;;;17.67;;
7080;SDS011;3582;51.506;11.948;2023-09-07T06:58:24;18.50;;;16.90;;
7080;SDS011;3582;51.506;11.948;2023-09-07T07:00:50;20.63;;;18.43;;
7080;SDS011;3582;51.506;11.948;2023-09-07T07:03:16;21.80;;;19.50;;
7080;SDS011;3582;51.506;11.948;2023-09-07T07:05:42;20.73;;;18.63;;
7080;SDS011;3582;51.506;11.948;2023-09-07T07:08:09;19.30;;;17.57;;
7080;SDS011;3582;51.506;11.948;2023-09-07T07:10:35;19.33;;;17.50;;
7080;SDS011;3582;51.506;11.948;2023-09-07T07:13:01;17.80;;;16.30;;
7080;SDS011;3582;51.506;11.948;2023-09-07T07:15:27;19.47;;;17.53;;
7080;SDS011;3582;51.506;11.948;2023-09-07T07:17:53;19.27;;;17.47;;
7080;SDS011;3582;51.506;11.948;2023-09-07T07:20:19;19.97;;;17.77;;
7080;SDS011;3582;51.506;11.948;2023-09-07T07:22:45;18.77;;;17.10;;
7080;SDS011;3582;51.506;11.948;2023-09-07T07:25:11;19.70;;;17.53;;
7080;SDS011;3582;51.506;11.948;2023-09-07T07:27:37;26.47;;;19.03;;
7080;SDS011;3582;51.506;11.948;2023-09-07T07:30:04;19.57;;;16.50;;
7080;SDS011;3582;51.506;11.948;2023-09-07T07:32:30;19.00;;;17.30;;
7080;SDS011;3582;51.506;11.948;2023-09-07T07:34:56;19.87;;;17.97;;
7080;SDS011;3582;51.506;11.948;2023-09-07T07:37:22;17.97;;;16.47;;
7080;SDS011;3582;51.506;11.948;2023-09-07T07:39:49;17.37;;;15.53;;
7080;SDS011;3582;51.506;11.948;2023-09-07T07:42:15;17.20;;;15.50;;
7080;SDS011;3582;51.506;11.948;2023-09-07T07:44:42;17.63;;;16.03;;
7080;SDS011;3582;51.506;11.948;2023-09-07T07:47:08;17.37;;;15.70;;
7080;SDS011;3582;51.506;11.948;2023-09-07T07:49:34;16.63;;;15.30;;
7080;SDS011;3582;51.506;11.948;2023-09-07T07:52:01;16.80;;;15.17;;
7080;SDS011;3582;51.506;11.948;2023-09-07T07:54:27;17.17;;;15.40;;
7080;SDS011;3582;51.506;11.948;2023-09-07T07:56:54;16.57;;;14.83;;
7080;SDS011;3582;51.506;11.948;2023-09-07T07:59:20;17.40;;;15.13;;
7080;SDS011;3582;51.506;11.948;2023-09-07T08:01:46;15.40;;;14.10;;
7080;SDS011;3582;51.506;11.948;2023-09-07T08:04:11;17.70;;;15.27;;
7080;SDS011;3582;51.506;11.948;2023-09-07T08:06:38;16.13;;;14.53;;
7080;SDS011;3582;51.506;11.948;2023-09-07T08:09:04;13.70;;;12.50;;
7080;SDS011;3582;51.506;11.948;2023-09-07T08:11:30;13.73;;;12.63;;
7080;SDS011;3582;51.506;11.948;2023-09-07T08:13:56;14.43;;;12.93;;
7080;SDS011;3582;51.506;11.948;2023-09-07T08:16:22;13.57;;;12.37;;
7080;SDS011;3582;51.506;11.948;2023-09-07T08:18:48;14.67;;;13.47;;
7080;SDS011;3582;51.506;11.948;2023-09-07T08:21:14;19.03;;;13.00;;
7080;SDS011;3582;51.506;11.948;2023-09-07T08:23:40;15.93;;;12.50;;
7080;SDS011;3582;51.506;11.948;2023-09-07T08:26:06;12.80;;;11.60;;
7080;SDS011;3582;51.506;11.948;2023-09-07T08:28:34;16.87;;;12.70;;
7080;SDS011;3582;51.506;11.948;2023-09-07T08:31:00;13.07;;;12.03;;
7080;SDS011;3582;51.506;11.948;2023-09-07T08:33:26;12.60;;;11.27;;
7080;SDS011;3582;51.506;11.948;2023-09-07T08:35:54;18.30;;;12.53;;
7080;SDS011;3582;51.506;11.948;2023-09-07T08:38:20;14.53;;;13.00;;
7080;SDS011;3582;51.506;11.948;2023-09-07T08:40:49;12.70;;;11.50;;
7080;SDS011;3582;51.506;11.948;2023-09-07T08:43:16;13.33;;;12.13;;
7080;SDS011;3582;51.506;11.948;2023-09-07T08:45:46;14.17;;;12.93;;
7080;SDS011;3582;51.506;11.948;2023-09-07T08:48:13;12.50;;;11.50;;
7080;SDS011;3582;51.506;11.948;2023-09-07T08:50:40;14.20;;;12.20;;
7080;SDS011;3582;51.506;11.948;2023-09-07T08:53:07;13.27;;;12.00;;
7080;SDS011;3582;51.506;11.948;2023-09-07T08:55:34;13.10;;;11.97;;
7080;SDS011;3582;51.506;11.948;2023-09-07T08:58:00;12.70;;;11.50;;
7080;SDS011;3582;51.506;11.948;2023-09-07T09:00:26;12.87;;;11.83;;
7080;SDS011;3582;51.506;11.948;2023-09-07T09:02:52;12.50;;;11.60;;
7080;SDS011;3582;51.506;11.948;2023-09-07T09:05:19;13.90;;;11.60;;
7080;SDS011;3582;51.506;11.948;2023-09-07T09:07:45;13.30;;;11.90;;
7080;SDS011;3582;51.506;11.948;2023-09-07T09:10:11;12.47;;;11.53;;
7080;SDS011;3582;51.506;11.948;2023-09-07T09:12:47;24.57;;;13.33;;
7080;SDS011;3582;51.506;11.948;2023-09-07T09:15:13;15.50;;;11.57;;
7080;SDS011;3582;51.506;11.948;2023-09-07T09:17:39;13.73;;;12.30;;
7080;SDS011;3582;51.506;11.948;2023-09-07T09:20:05;11.93;;;10.73;;
7080;SDS011;3582;51.506;11.948;2023-09-07T09:22:44;11.50;;;10.30;;
7080;SDS011;3582;51.506;11.948;2023-09-07T09:25:10;11.97;;;10.70;;
7080;SDS011;3582;51.506;11.948;2023-09-07T09:27:36;11.13;;;9.93;;
7080;SDS011;3582;51.506;11.948;2023-09-07T09:30:02;11.63;;;10.53;;
7080;SDS011;3582;51.506;11.948;2023-09-07T09:32:29;12.23;;;11.13;;
7080;SDS011;3582;51.506;11.948;2023-09-07T09:34:55;11.70;;;10.70;;
7080;SDS011;3582;51.506;11.948;2023-09-07T09:37:21;11.43;;;10.40;;
7080;SDS011;3582;51.506;11.948;2023-09-07T09:39:49;10.80;;;9.80;;
7080;SDS011;3582;51.506;11.948;2023-09-07T09:42:15;12.27;;;11.03;;
7080;SDS011;3582;51.506;11.948;2023-09-07T09:44:42;11.07;;;9.70;;
7080;SDS011;3582;51.506;11.948;2023-09-07T09:47:09;11.33;;;10.10;;
7080;SDS011;3582;51.506;11.948;2023-09-07T09:49:36;10.37;;;9.57;;
7080;SDS011;3582;51.506;11.948;2023-09-07T09:52:03;11.67;;;10.47;;
7080;SDS011;3582;51.506;11.948;2023-09-07T09:54:33;10.30;;;8.50;;
7080;SDS011;3582;51.506;11.948;2023-09-07T09:57:01;9.90;;;9.00;;
7080;SDS011;3582;51.506;11.948;2023-09-07T09:59:27;9.77;;;8.13;;
7080;SDS011;3582;51.506;11.948;2023-09-07T10:01:53;9.83;;;8.90;;
7080;SDS011;3582;51.506;11.948;2023-09-07T10:04:19;9.20;;;7.90;;
7080;SDS011;3582;51.506;11.948;2023-09-07T10:06:53;9.87;;;7.80;;
7080;SDS011;3582;51.506;11.948;2023-09-07T10:09:20;8.23;;;7.47;;
7080;SDS011;3582;51.506;11.948;2023-09-07T10:11:50;10.17;;;7.80;;
7080;SDS011;3582;51.506;11.948;2023-09-07T10:14:17;8.67;;;7.87;;
7080;SDS011;3582;51.506;11.948;2023-09-07T10:16:43;8.37;;;7.57;;
7080;SDS011;3582;51.506;11.948;2023-09-07T10:21:41;7.70;;;7.00;;
7080;SDS011;3582;51.506;11.948;2023-09-07T10:24:08;8.03;;;7.20;;
7080;SDS011;3582;51.506;11.948;2023-09-07T10:26:34;9.47;;;8.70;;
7080;SDS011;3582;51.506;11.948;2023-09-07T10:29:00;8.43;;;7.57;;
7080;SDS011;3582;51.506;11.948;2023-09-07T10:31:28;9.93;;;7.80;;
7080;SDS011;3582;51.506;11.948;2023-09-07T10:34:07;9.70;;;7.93;;
7080;SDS011;3582;51.506;11.948;2023-09-07T10:36:34;7.17;;;6.57;;
7080;SDS011;3582;51.506;11.948;2023-09-07T10:39:02;8.40;;;7.23;;
7080;SDS011;3582;51.506;11.948;2023-09-07T10:41:39;9.73;;;6.63;;
7080;SDS011;3582;51.506;11.948;2023-09-07T10:44:05;7.23;;;6.63;;
7080;SDS011;3582;51.506;11.948;2023-09-07T10:46:31;7.87;;;7.30;;
7080;SDS011;3582;51.506;11.948;2023-09-07T10:48:57;7.37;;;6.87;;
7080;SDS011;3582;51.506;11.948;2023-09-07T10:51:24;7.80;;;7.10;;
7080;SDS011;3582;51.506;11.948;2023-09-07T10:53:50;7.50;;;7.00;;
7080;SDS011;3582;51.506;11.948;2023-09-07T10:56:16;13.20;;;7.80;;
7080;SDS011;3582;51.506;11.948;2023-09-07T10:58:42;7.30;;;6.70;;
7080;SDS011;3582;51.506;11.948;2023-09-07T11:01:08;7.83;;;7.00;;
7080;SDS011;3582;51.506;11.948;2023-09-07T11:03:35;6.80;;;6.20;;
7080;SDS011;3582;51.506;11.948;2023-09-07T11:08:31;6.20;;;5.60;;
7080;SDS011;3582;51.506;11.948;2023-09-07T11:10:58;8.43;;;7.63;;
7080;SDS011;3582;51.506;11.948;2023-09-07T11:13:24;7.30;;;6.50;;
7080;SDS011;3582;51.506;11.948;2023-09-07T11:15:53;7.03;;;6.00;;
7080;SDS011;3582;51.506;11.948;2023-09-07T11:18:21;8.23;;;6.97;;
7080;SDS011;3582;51.506;11.948;2023-09-07T11:20:48;10.73;;;6.73;;
7080;SDS011;3582;51.506;11.948;2023-09-07T11:23:15;7.63;;;6.87;;
7080;SDS011;3582;51.506;11.948;2023-09-07T11:25:41;7.47;;;6.10;;
7080;SDS011;3582;51.506;11.948;2023-09-07T11:28:08;12.60;;;6.50;;
7080;SDS011;3582;51.506;11.948;2023-09-07T11:30:34;6.13;;;5.73;;
7080;SDS011;3582;51.506;11.948;2023-09-07T11:33:07;6.80;;;6.23;;
7080;SDS011;3582;51.506;11.948;2023-09-07T11:35:33;6.90;;;6.27;;
7080;SDS011;3582;51.506;11.948;2023-09-07T11:38:00;6.50;;;5.80;;
7080;SDS011;3582;51.506;11.948;2023-09-07T11:40:26;6.20;;;5.80;;
7080;SDS011;3582;51.506;11.948;2023-09-07T11:42:52;7.80;;;6.93;;
7080;SDS011;3582;51.506;11.948;2023-09-07T11:45:18;6.60;;;6.00;;
7080;SDS011;3582;51.506;11.948;2023-09-07T11:47:44;7.57;;;7.00;;
7080;SDS011;3582;51.506;11.948;2023-09-07T11:50:10;7.60;;;6.50;;
7080;SDS011;3582;51.506;11.948;2023-09-07T11:52:36;7.83;;;6.87;;
7080;SDS011;3582;51.506;11.948;2023-09-07T11:55:03;7.80;;;7.10;;
7080;SDS011;3582;51.506;11.948;2023-09-07T11:57:29;6.97;;;6.37;;
7080;SDS011;3582;51.506;11.948;2023-09-07T11:59:55;7.63;;;7.07;;
7080;SDS011;3582;51.506;11.948;2023-09-07T12:02:21;6.53;;;6.00;;
7080;SDS011;3582;51.506;11.948;2023-09-07T12:04:47;5.80;;;5.27;;
7080;SDS011;3582;51.506;11.948;2023-09-07T12:07:16;8.37;;;6.53;;
7080;SDS011;3582;51.506;11.948;2023-09-07T12:09:42;7.20;;;6.70;;
7080;SDS011;3582;51.506;11.948;2023-09-07T12:12:08;7.47;;;6.00;;
7080;SDS011;3582;51.506;11.948;2023-09-07T12:14:35;6.47;;;5.90;;
7080;SDS011;3582;51.506;11.948;2023-09-07T12:17:01;7.60;;;5.70;;
7080;SDS011;3582;51.506;11.948;2023-09-07T12:19:28;5.57;;;5.03;;
7080;SDS011;3582;51.506;11.948;2023-09-07T12:21:54;6.67;;;6.17;;
7080;SDS011;3582;51.506;11.948;2023-09-07T12:24:20;6.53;;;5.50;;
7080;SDS011;3582;51.506;11.948;2023-09-07T12:26:46;7.63;;;5.83;;
7080;SDS011;3582;51.506;11.948;2023-09-07T12:29:12;5.60;;;5.20;;
7080;SDS011;3582;51.506;11.948;2023-09-07T12:31:38;7.83;;;5.73;;
7080;SDS011;3582;51.506;11.948;2023-09-07T12:34:04;6.13;;;5.67;;
7080;SDS011;3582;51.506;11.948;2023-09-07T12:36:30;7.20;;;6.03;;
7080;SDS011;3582;51.506;11.948;2023-09-07T12:38:56;6.00;;;5.50;;
7080;SDS011;3582;51.506;11.948;2023-09-07T12:41:27;7.70;;;6.20;;
7080;SDS011;3582;51.506;11.948;2023-09-07T12:43:53;7.27;;;5.80;;
7080;SDS011;3582;51.506;11.948;2023-09-07T12:46:19;7.10;;;5.43;;
7080;SDS011;3582;51.506;11.948;2023-09-07T12:48:45;8.10;;;7.40;;
7080;SDS011;3582;51.506;11.948;2023-09-07T12:51:11;6.07;;;5.37;;
7080;SDS011;3582;51.506;11.948;2023-09-07T12:53:37;6.73;;;6.07;;
7080;SDS011;3582;51.506;11.948;2023-09-07T12:56:04;9.23;;;5.63;;
7080;SDS011;3582;51.506;11.948;2023-09-07T12:58:31;6.47;;;6.03;;
7080;SDS011;3582;51.506;11.948;2023-09-07T13:00:57;5.37;;;4.87;;
7080;SDS011;3582;51.506;11.948;2023-09-07T13:03:22;5.73;;;5.23;;
7080;SDS011;3582;51.506;11.948;2023-09-07T13:05:48;6.07;;;5.47;;
7080;SDS011;3582;51.506;11.948;2023-09-07T13:08:15;6.20;;;5.57;;
7080;SDS011;3582;51.506;11.948;2023-09-07T13:10:41;6.10;;;5.50;;
7080;SDS011;3582;51.506;11.948;2023-09-07T13:13:07;6.97;;;5.70;;
7080;SDS011;3582;51.506;11.948;2023-09-07T13:15:34;5.97;;;5.47;;
7080;SDS011;3582;51.506;11.948;2023-09-07T13:18:01;5.73;;;5.00;;
7080;SDS011;3582;51.506;11.948;2023-09-07T13:20:27;8.10;;;5.37;;
7080;SDS011;3582;51.506;11.948;2023-09-07T13:22:53;5.70;;;5.30;;
7080;SDS011;3582;51.506;11.948;2023-09-07T13:25:19;5.00;;;4.60;;
7080;SDS011;3582;51.506;11.948;2023-09-07T13:27:45;7.83;;;5.20;;
7080;SDS011;3582;51.506;11.948;2023-09-07T13:30:11;5.00;;;4.60;;
7080;SDS011;3582;51.506;11.948;2023-09-07T13:32:38;7.27;;;6.37;;
7080;SDS011;3582;51.506;11.948;2023-09-07T13:35:04;7.83;;;4.90;;
7080;SDS011;3582;51.506;11.948;2023-09-07T13:37:30;5.43;;;5.00;;
7080;SDS011;3582;51.506;11.948;2023-09-07T13:39:56;6.43;;;5.73;;
7080;SDS011;3582;51.506;11.948;2023-09-07T13:42:22;5.30;;;4.90;;
7080;SDS011;3582;51.506;11.948;2023-09-07T13:44:48;4.80;;;4.37;;
7080;SDS011;3582;51.506;11.948;2023-09-07T13:47:14;5.70;;;4.80;;
7080;SDS011;3582;51.506;11.948;2023-09-07T13:49:40;6.93;;;5.10;;
7080;SDS011;3582;51.506;11.948;2023-09-07T13:52:06;7.77;;;5.60;;
7080;SDS011;3582;51.506;11.948;2023-09-07T13:54:32;7.10;;;5.10;;
7080;SDS011;3582;51.506;11.948;2023-09-07T13:56:58;7.13;;;5.27;;
7080;SDS011;3582;51.506;11.948;2023-09-07T13:59:24;6.60;;;5.90;;
7080;SDS011;3582;51.506;11.948;2023-09-07T14:01:53;6.70;;;5.80;;
7080;SDS011;3582;51.506;11.948;2023-09-07T14:04:19;5.63;;;4.80;;
7080;SDS011;3582;51.506;11.948;2023-09-07T14:06:45;5.67;;;5.17;;
7080;SDS011;3582;51.506;11.948;2023-09-07T14:09:11;5.17;;;4.87;;
7080;SDS011;3582;51.506;11.948;2023-09-07T14:11:37;6.90;;;5.73;;
7080;SDS011;3582;51.506;11.948;2023-09-07T14:14:03;6.23;;;5.73;;
7080;SDS011;3582;51.506;11.948;2023-09-07T14:16:30;7.00;;;6.40;;
7080;SDS011;3582;51.506;11.948;2023-09-07T14:18:55;8.20;;;5.97;;
7080;SDS011;3582;51.506;11.948;2023-09-07T14:21:22;6.20;;;5.70;;
7080;SDS011;3582;51.506;11.948;2023-09-07T14:23:47;7.50;;;6.07;;
7080;SDS011;3582;51.506;11.948;2023-09-07T14:26:13;6.43;;;5.83;;
7080;SDS011;3582;51.506;11.948;2023-09-07T14:28:39;6.57;;;5.60;;
7080;SDS011;3582;51.506;11.948;2023-09-07T14:31:06;8.10;;;5.25;;
7080;SDS011;3582;51.506;11.948;2023-09-07T14:33:32;6.73;;;6.00;;
7080;SDS011;3582;51.506;11.948;2023-09-07T14:35:59;6.40;;;5.80;;
7080;SDS011;3582;51.506;11.948;2023-09-07T14:38:25;5.67;;;5.07;;
7080;SDS011;3582;51.506;11.948;2023-09-07T14:40:52;6.83;;;5.67;;
7080;SDS011;3582;51.506;11.948;2023-09-07T14:43:20;6.07;;;5.57;;
7080;SDS011;3582;51.506;11.948;2023-09-07T14:45:46;6.57;;;6.00;;
7080;SDS011;3582;51.506;11.948;2023-09-07T14:48:12;6.50;;;6.00;;
7080;SDS011;3582;51.506;11.948;2023-09-07T14:50:38;6.47;;;5.90;;
7080;SDS011;3582;51.506;11.948;2023-09-07T14:53:04;7.47;;;6.97;;